South Dos Palos, California
Current Conditions -  °F | °C
As of 9:53 PM on Tuesday 25 Nov 2014 (Local Time) from KMCE Reporting Station
Haze Haze  
Wind Chill:   Ceiling: Unl
Heat Index:   Visibility: 5mi
Dew Point:   Wind: 0mph
Humidity: 77%   Direction: NA
Pressure: 30.38"   Gusts: NA
Location:  36.96°N, 120.65°W
Report Text: KMCE 260553Z AUTO 00000KT 5SM HZ CLR 09/06 A3038 RMK AO2 SLP287 T00940056 10172 20083 50001
Loading
Personal Weather Stations






























Interactive Weather Map New forecast layout! Learn more

10-Day Weather Forecast

Advertisements
Track Severe Weather on mobile